Time;durP1;ratioP1;P1;durP2;ratioP2;P2;SDS_P1;SDS_P2;PMS_P1;PMS_P2;Temp;Humidity;BMP_temperature;BMP_pressure;BME280_temperature;BME280_humidity;BME280_pressure;Samples;Min_cycle;Max_cycle;Signal;HPM_P1;HPM_P2
2021/01/17 00:03:54;;;;;;;7.00;3.10;;;;;;;-9.21;52.05;98048.00;10499809;28;20491;-49
2021/01/17 00:08:55;;;;;;;10.70;3.35;;;;;;;-9.21;51.37;98058.19;10500006;28;20048;-51
2021/01/17 00:13:57;;;;;;;7.20;2.60;;;;;;;-9.19;51.27;98069.16;10499403;28;20056;-48
2021/01/17 00:19:00;;;;;;;6.68;2.55;;;;;;;-9.17;51.33;98065.69;10499238;28;20101;-47
2021/01/17 00:24:01;;;;;;;9.95;2.63;;;;;;;-9.05;51.25;98072.06;10499650;28;20049;-47
2021/01/17 00:29:03;;;;;;;11.05;2.92;;;;;;;-8.94;51.05;98079.38;10497970;28;20146;-47
2021/01/17 00:34:06;;;;;;;6.18;2.15;;;;;;;-8.87;51.12;98079.09;10498470;28;20474;-47
2021/01/17 00:39:08;;;;;;;6.50;2.35;;;;;;;-8.88;50.91;98086.81;10499547;28;20056;-47
2021/01/17 00:44:10;;;;;;;8.20;2.60;;;;;;;-8.89;50.50;98085.16;10498757;28;20127;-47
2021/01/17 00:49:12;;;;;;;9.20;2.65;;;;;;;-8.95;51.14;98085.34;10466753;28;20538;-49
2021/01/17 00:54:15;;;;;;;12.15;3.92;;;;;;;-9.00;50.85;98097.38;10496888;28;20519;-47
2021/01/17 00:59:18;;;;;;;9.88;3.60;;;;;;;-9.05;50.81;98106.03;10498436;28;20040;-48
2021/01/17 01:04:23;;;;;;;4.93;1.87;;;;;;;-9.07;51.03;98102.69;10497209;28;20072;-49
2021/01/17 01:09:25;;;;;;;4.68;2.10;;;;;;;-9.15;51.11;98119.91;10498472;28;20049;-48
2021/01/17 01:14:26;;;;;;;6.50;2.30;;;;;;;-9.21;50.99;98121.81;10498788;28;20485;-48
2021/01/17 01:19:29;;;;;;;7.22;1.98;;;;;;;-9.23;51.13;98128.66;10498066;28;20048;-49
2021/01/17 01:24:31;;;;;;;6.45;2.95;;;;;;;-9.22;51.16;98122.69;10497581;28;20048;-47
2021/01/17 01:29:33;;;;;;;10.67;3.67;;;;;;;-9.24;51.30;98104.09;10498258;28;20101;-47
2021/01/17 01:34:35;;;;;;;11.90;2.60;;;;;;;-9.24;51.03;98121.91;10497688;28;20048;-48
2021/01/17 01:39:38;;;;;;;8.27;3.65;;;;;;;-9.22;50.33;98127.78;10497609;28;20043;-49
2021/01/17 01:44:41;;;;;;;4.88;1.90;;;;;;;-9.29;51.19;98133.06;10500540;28;20378;-48
2021/01/17 01:49:45;;;;;;;9.05;3.35;;;;;;;-9.47;51.03;98138.69;10504549;28;20040;-47
2021/01/17 01:54:47;;;;;;;7.65;3.17;;;;;;;-9.56;51.62;98149.97;10505447;28;20143;-48
2021/01/17 01:59:49;;;;;;;8.07;2.70;;;;;;;-9.51;51.34;98152.41;10504479;28;20044;-48
2021/01/17 02:04:52;;;;;;;11.13;3.55;;;;;;;-9.48;51.67;98151.44;10505213;28;20059;-48
2021/01/17 02:09:54;;;;;;;6.75;2.80;;;;;;;-9.57;51.23;98155.13;10504122;28;20460;-48
2021/01/17 02:15:02;;;;;;;12.27;3.38;;;;;;;-9.59;51.39;98164.50;10504618;28;20090;-49
2021/01/17 02:20:11;;;;;;;6.13;2.35;;;;;;;-9.57;50.99;98155.94;10503892;28;20052;-47
2021/01/17 02:25:15;;;;;;;5.28;2.08;;;;;;;-9.66;51.74;98173.19;10502856;28;20440;-49
2021/01/17 02:30:19;;;;;;;8.63;3.53;;;;;;;-9.67;51.67;98159.63;10503446;28;20048;-49
2021/01/17 02:35:23;;;;;;;7.65;3.20;;;;;;;-9.69;51.04;98161.38;10503310;28;20049;-49
2021/01/17 02:40:48;;;;;;;6.83;2.90;;;;;;;-9.73;51.47;98180.13;10503245;28;20063;-48
2021/01/17 02:45:49;;;;;;;7.70;3.20;;;;;;;-9.78;51.56;98182.81;10502740;28;20120;-47
2021/01/17 02:50:51;;;;;;;10.00;2.80;;;;;;;-9.76;51.39;98178.53;10503186;28;20056;-47
2021/01/17 02:55:56;;;;;;;8.48;3.15;;;;;;;-9.78;51.14;98187.91;10502913;28;20052;-47
2021/01/17 03:01:00;;;;;;;13.47;3.57;;;;;;;-9.83;50.77;98191.44;10502561;28;20071;-49
2021/01/17 03:06:06;;;;;;;9.10;3.00;;;;;;;-9.86;50.65;98197.44;10502946;28;20420;-49
2021/01/17 03:11:09;;;;;;;7.57;1.92;;;;;;;-9.81;50.54;98200.69;10501800;28;20044;-47
2021/01/17 03:16:11;;;;;;;9.50;3.20;;;;;;;-9.84;49.63;98205.88;10501942;28;20048;-49
2021/01/17 03:21:13;;;;;;;10.20;2.60;;;;;;;-9.72;49.46;98212.34;10501188;28;20053;-48
2021/01/17 03:26:15;;;;;;;3.28;1.27;;;;;;;-9.66;50.03;98213.88;10534358;28;20056;-49
2021/01/17 03:31:17;;;;;;;6.95;2.25;;;;;;;-9.69;50.04;98224.13;10501422;28;20040;-46
2021/01/17 03:36:19;;;;;;;11.50;3.17;;;;;;;-9.79;50.10;98226.94;10501156;28;20079;-47
2021/01/17 03:41:23;;;;;;;7.53;2.20;;;;;;;-9.84;49.62;98225.38;10500783;28;20044;-49
2021/01/17 03:46:27;;;;;;;10.50;3.20;;;;;;;-9.94;49.21;98231.56;10500345;28;20060;-47
2021/01/17 03:51:29;;;;;;;8.30;3.10;;;;;;;-10.07;48.76;98246.31;10500450;28;20105;-49
2021/01/17 03:56:31;;;;;;;6.07;2.60;;;;;;;-10.24;48.51;98247.56;10500385;28;20117;-48
2021/01/17 04:01:33;;;;;;;4.85;1.73;;;;;;;-10.36;48.81;98242.81;10499704;28;20063;-47
2021/01/17 04:06:36;;;;;;;6.67;2.53;;;;;;;-10.52;48.48;98259.31;10498980;28;20531;-47
2021/01/17 04:11:38;;;;;;;12.18;3.15;;;;;;;-10.61;48.39;98259.53;10499709;28;20059;-48
2021/01/17 04:16:40;;;;;;;4.72;2.42;;;;;;;-10.69;49.37;98275.75;10499500;28;20044;-49
2021/01/17 04:21:43;;;;;;;7.38;2.35;;;;;;;-10.85;49.05;98274.44;10499324;28;20117;-48
2021/01/17 04:26:45;;;;;;;4.77;1.60;;;;;;;-11.02;49.12;98267.22;10499506;28;20059;-48
2021/01/17 04:31:47;;;;;;;8.43;3.13;;;;;;;-11.25;49.97;98275.28;10498898;28;20048;-53
2021/01/17 04:36:49;;;;;;;9.03;3.50;;;;;;;-11.36;49.99;98277.19;10498456;28;20044;-48
2021/01/17 04:41:56;;;;;;;4.23;1.70;;;;;;;-11.43;49.71;98285.78;10500213;28;20071;-48
2021/01/17 04:47:00;;;;;;;7.87;2.70;;;;;;;-11.49;49.69;98296.06;10501468;28;20055;-59
2021/01/17 04:52:03;;;;;;;9.53;2.80;;;;;;;-11.59;49.51;98296.22;10502695;28;20054;-50
2021/01/17 04:57:12;;;;;;;5.77;2.40;;;;;;;-11.63;49.46;98298.88;10499708;28;20060;-48
2021/01/17 05:02:31;;;;;;;5.23;2.20;;;;;;;-11.79;49.61;98313.53;10498997;28;20098;-47
2021/01/17 05:07:36;;;;;;;8.97;2.80;;;;;;;-11.87;49.14;98330.59;10498793;28;20130;-49
2021/01/17 05:12:40;;;;;;;7.00;2.90;;;;;;;-11.87;49.01;98335.66;10498146;28;20106;-47
2021/01/17 05:17:42;;;;;;;8.07;3.17;;;;;;;-11.94;48.80;98344.22;10498389;28;20055;-48
2021/01/17 05:22:44;;;;;;;12.33;3.90;;;;;;;-11.98;49.36;98353.56;10506118;28;20117;-48
2021/01/17 05:27:49;;;;;;;8.90;3.23;;;;;;;-11.98;49.52;98358.63;10505875;28;20055;-48
2021/01/17 05:32:52;;;;;;;7.03;2.87;;;;;;;-12.04;48.88;98370.56;10505447;28;20485;-48
2021/01/17 05:37:54;;;;;;;;;;;;;;;-12.12;49.10;98371.53;10506516;28;20388;-47
2021/01/17 05:42:57;;;;;;;7.37;2.43;;;;;;;-12.16;49.27;98380.03;10508392;28;20011;-48
2021/01/17 05:48:00;;;;;;;6.07;2.42;;;;;;;-12.17;49.29;98385.94;10505608;28;20068;-47
2021/01/17 05:53:03;;;;;;;4.50;1.93;;;;;;;-12.18;49.29;98388.53;10505395;28;20045;-48
2021/01/17 05:58:21;;;;;;;;;;;;;;;-12.14;48.81;98393.50;10504967;28;20054;-46
2021/01/17 06:03:26;;;;;;;4.57;1.60;;;;;;;-12.11;48.65;98392.63;10504716;28;19924;-47
2021/01/17 06:08:29;;;;;;;5.40;1.80;;;;;;;-12.08;48.52;98398.47;10504691;28;20122;-48
2021/01/17 06:13:32;;;;;;;6.45;2.22;;;;;;;-12.11;49.20;98413.72;10504338;28;20063;-46
2021/01/17 06:18:33;;;;;;;;;;;;;;;-12.11;49.04;98417.97;10504890;28;20113;-46
2021/01/17 06:23:37;;;;;;;6.77;2.50;;;;;;;-12.11;49.20;98426.41;10504165;28;19928;-48
2021/01/17 06:28:41;;;;;;;5.07;1.23;;;;;;;-12.08;49.50;98436.47;10504386;28;20048;-46
2021/01/17 06:33:43;;;;;;;8.00;1.73;;;;;;;-12.08;49.31;98433.94;10501925;28;20048;-48
2021/01/17 06:38:45;;;;;;;4.40;1.80;;;;;;;-12.03;49.93;98445.72;10502977;28;20443;-47
2021/01/17 06:43:49;;;;;;;1.67;0.83;;;;;;;-12.00;50.49;98455.81;10502944;28;20059;-48
2021/01/17 06:48:51;;;;;;;9.43;2.67;;;;;;;-11.90;51.17;98464.94;10502993;28;20135;-48
2021/01/17 06:53:54;;;;;;;5.57;2.20;;;;;;;-11.76;50.77;98463.00;10502426;28;20477;-47
2021/01/17 06:58:56;;;;;;;;;;;;;;;-11.56;50.87;98472.00;10502975;28;20051;-49
2021/01/17 07:04:17;;;;;;;9.53;2.60;;;;;;;-11.34;50.60;98482.63;10502556;28;20023;-46
2021/01/17 07:09:25;;;;;;;8.20;2.90;;;;;;;-11.20;50.71;98489.16;10502148;28;20096;-46
2021/01/17 07:14:31;;;;;;;5.90;2.30;;;;;;;-10.93;51.10;98505.59;10501712;28;20473;-47
2021/01/17 07:19:33;;;;;;;1.67;1.10;;;;;;;-10.95;51.04;98507.31;10501165;28;20044;-47
2021/01/17 07:24:35;;;;;;;4.38;2.15;;;;;;;-10.96;52.12;98509.88;10500327;28;20048;-48
2021/01/17 07:29:41;;;;;;;7.30;2.20;;;;;;;-10.94;51.71;98508.16;10501032;28;20438;-49
2021/01/17 07:34:53;;;;;;;9.20;2.17;;;;;;;-10.90;52.73;98522.44;10500963;28;20508;-48
2021/01/17 07:39:57;;;;;;;9.00;3.90;;;;;;;-10.78;52.09;98529.84;10500512;28;20049;-47
2021/01/17 07:45:16;;;;;;;10.97;4.40;;;;;;;-10.18;53.96;98546.47;10500374;28;20044;-47
2021/01/17 07:50:19;;;;;;;13.18;3.40;;;;;;;-9.32;55.18;98545.41;10500280;28;20048;-47
2021/01/17 07:55:22;;;;;;;8.40;3.10;;;;;;;-7.82;58.51;98557.56;10500300;28;20048;-47
2021/01/17 08:00:26;;;;;;;12.73;4.15;;;;;;;-6.19;60.56;98561.63;10500049;28;20084;-47
2021/01/17 08:05:51;;;;;;;17.40;5.93;;;;;;;-4.53;61.54;98561.13;10501511;28;20109;-48
2021/01/17 08:10:53;;;;;;;12.88;5.10;;;;;;;-3.36;61.83;98561.09;10500210;28;20040;-47
2021/01/17 08:16:09;;;;;;;13.85;5.10;;;;;;;-3.48;56.30;98565.06;10500152;28;20048;-47
2021/01/17 08:21:24;;;;;;;11.88;5.78;;;;;;;-4.92;47.02;98568.75;10500882;28;20051;-48
2021/01/17 08:26:59;;;;;;;9.55;3.92;;;;;;;-6.08;47.21;98572.34;10499407;28;20126;-48
2021/01/17 08:32:31;;;;;;;11.95;4.18;;;;;;;-6.98;45.88;98575.41;10499309;28;20044;-47
2021/01/17 08:37:34;;;;;;;15.40;4.97;;;;;;;-7.69;47.09;98579.31;10499079;28;20197;-47
2021/01/17 08:42:48;;;;;;;8.52;3.45;;;;;;;-8.25;46.54;98581.72;10498829;28;20072;-48
2021/01/17 08:47:51;;;;;;;;;;;;;;;-8.06;51.55;98595.66;10499197;28;20150;-47
2021/01/17 08:53:05;;;;;;;15.10;4.47;;;;;;;-6.82;56.18;98601.31;10499025;28;19924;-49
2021/01/17 08:58:07;;;;;;;;;;;;;;;-6.07;54.45;98591.06;10508552;28;20098;-49
2021/01/17 09:03:25;;;;;;;15.30;4.38;;;;;;;-5.68;53.47;98588.75;10506957;28;20423;-50
2021/01/17 09:08:28;;;;;;;12.30;5.55;;;;;;;-5.48;51.99;98589.72;10508667;28;20044;-53
2021/01/17 09:13:31;;;;;;;10.60;4.80;;;;;;;-5.22;51.93;98584.44;10507406;28;20048;-49
2021/01/17 09:18:36;;;;;;;6.82;3.67;;;;;;;-5.27;50.05;98593.19;10505668;28;20043;-48
2021/01/17 09:23:39;;;;;;;14.07;5.22;;;;;;;-5.64;47.66;98615.91;10506653;28;20073;-47
2021/01/17 09:28:41;;;;;;;11.65;4.07;;;;;;;-5.81;47.42;98623.38;10505431;28;20079;-48
2021/01/17 09:33:49;;;;;;;12.25;4.53;;;;;;;-5.81;49.54;98623.38;10506591;28;20052;-47
2021/01/17 09:38:51;;;;;;;15.60;5.55;;;;;;;-5.09;50.15;98634.31;10506305;28;20082;-49
2021/01/17 09:43:54;;;;;;;13.15;4.40;;;;;;;-5.27;44.86;98636.75;10506058;28;20060;-48
2021/01/17 09:48:58;;;;;;;12.55;5.18;;;;;;;-5.24;45.32;98642.59;10538302;28;20139;-48
2021/01/17 09:54:00;;;;;;;10.25;3.53;;;;;;;-4.96;47.97;98644.09;10505116;28;20315;-52
2021/01/17 09:59:02;;;;;;;10.95;5.05;;;;;;;-4.34;50.45;98648.44;10504740;28;20046;-51
2021/01/17 10:04:05;;;;;;;15.73;5.55;;;;;;;-3.91;51.43;98645.75;10504753;28;20117;-50
2021/01/17 10:09:16;;;;;;;16.45;6.97;;;;;;;-3.79;51.15;98651.19;10505700;28;20048;-47
2021/01/17 10:14:22;;;;;;;13.05;5.30;;;;;;;-4.37;49.16;98653.69;10504846;28;20048;-49
2021/01/17 10:19:29;;;;;;;19.80;6.30;;;;;;;-5.04;48.10;98648.69;10506509;28;20044;-47
2021/01/17 10:24:32;;;;;;;12.50;5.55;;;;;;;-5.51;48.00;98656.44;10505063;28;20044;-48
2021/01/17 10:29:36;;;;;;;15.77;5.45;;;;;;;-5.99;47.62;98649.66;10506738;28;20127;-47
2021/01/17 10:34:41;;;;;;;12.52;4.80;;;;;;;-6.47;46.99;98655.53;10503996;28;20056;-49
2021/01/17 10:39:43;;;;;;;11.88;3.83;;;;;;;-6.95;47.30;98663.03;10503221;28;20494;-49
2021/01/17 10:44:51;;;;;;;16.13;4.60;;;;;;;-7.17;48.63;98669.66;10503745;28;20090;-48
2021/01/17 10:49:59;;;;;;;14.70;4.07;;;;;;;-7.43;48.86;98678.09;10503500;28;20040;-47
2021/01/17 10:55:04;;;;;;;10.13;4.43;;;;;;;-7.54;49.03;98685.19;10504865;28;20060;-48
2021/01/17 11:00:08;;;;;;;14.35;5.15;;;;;;;-7.69;49.29;98679.66;10502621;28;20052;-47
2021/01/17 11:05:11;;;;;;;10.32;3.72;;;;;;;-7.81;49.44;98677.44;10469313;28;20485;-47
2021/01/17 11:10:14;;;;;;;11.85;5.10;;;;;;;-8.14;47.97;98681.72;10459247;28;20036;-48
2021/01/17 11:15:18;;;;;;;15.50;4.97;;;;;;;-8.36;48.89;98674.63;10455208;28;20063;-47
2021/01/17 11:20:24;;;;;;;;;;;;;;;-8.45;48.70;98682.53;10455945;28;20094;-47
2021/01/17 11:25:26;;;;;;;9.68;3.42;;;;;;;-8.65;49.29;98690.69;10457200;28;19982;-48
2021/01/17 11:30:30;;;;;;;10.27;3.83;;;;;;;-8.66;49.45;98688.16;10455909;28;20425;-48
2021/01/17 11:35:32;;;;;;;9.65;4.00;;;;;;;-8.82;49.64;98683.41;10456890;28;20071;-47
2021/01/17 11:40:35;;;;;;;9.50;3.88;;;;;;;-8.84;49.86;98684.31;10458360;28;20151;-52
2021/01/17 11:45:42;;;;;;;9.88;4.22;;;;;;;-8.80;49.64;98691.03;10457225;28;20095;-47
2021/01/17 11:50:46;;;;;;;11.50;4.05;;;;;;;-8.77;49.53;98685.00;10457690;28;20144;-46
2021/01/17 11:55:50;;;;;;;16.20;3.85;;;;;;;-8.79;48.93;98687.63;10457467;28;20389;-47
2021/01/17 12:00:53;;;;;;;13.65;5.07;;;;;;;-8.89;48.76;98681.91;10456713;28;20053;-48
2021/01/17 12:06:08;;;;;;;12.03;3.93;;;;;;;-8.97;48.67;98693.97;10457096;28;20080;-47
2021/01/17 12:11:09;;;;;;;3.75;1.65;;;;;;;-9.17;48.62;98696.97;10456815;28;20474;-47
2021/01/17 12:16:11;;;;;;;11.37;4.30;;;;;;;-9.27;49.03;98716.69;10455769;28;20112;-47
2021/01/17 12:21:21;;;;;;;16.63;4.40;;;;;;;-9.29;48.77;98723.50;10455925;28;20044;-50
2021/01/17 12:26:23;;;;;;;11.23;3.67;;;;;;;-9.34;48.06;98730.38;10454531;28;20044;-47
2021/01/17 12:31:26;;;;;;;10.80;3.60;;;;;;;-9.43;47.46;98730.56;10454996;28;20053;-54
2021/01/17 12:36:30;;;;;;;7.95;3.45;;;;;;;-9.49;47.80;98738.34;10455148;28;20049;-49
2021/01/17 12:41:34;;;;;;;14.70;4.37;;;;;;;-9.54;47.38;98742.69;10452055;28;20048;-47
2021/01/17 12:46:36;;;;;;;11.40;3.90;;;;;;;-9.64;47.45;98743.72;10452464;28;20059;-47
2021/01/17 12:51:38;;;;;;;6.85;3.17;;;;;;;-9.75;47.16;98742.22;10453718;28;20094;-49
2021/01/17 12:56:40;;;;;;;7.82;3.10;;;;;;;-9.83;47.04;98753.41;10455610;28;20516;-48
2021/01/17 13:01:42;;;;;;;13.33;3.93;;;;;;;-9.93;47.34;98756.97;10453848;28;20045;-48
2021/01/17 13:06:44;;;;;;;14.30;5.07;;;;;;;-10.02;46.80;98760.53;10453679;28;20191;-48
2021/01/17 13:11:46;;;;;;;10.30;4.25;;;;;;;-10.09;46.52;98772.50;10454811;28;20056;-47
2021/01/17 13:16:48;;;;;;;10.53;3.73;;;;;;;-10.17;46.73;98781.94;10453876;28;20513;-47
2021/01/17 13:21:51;;;;;;;11.57;4.07;;;;;;;-10.20;46.70;98787.91;10455437;28;20052;-46
2021/01/17 13:26:54;;;;;;;29.42;6.40;;;;;;;-10.20;45.95;98787.09;10453323;28;20495;-48
2021/01/17 13:32:00;;;;;;;23.38;5.70;;;;;;;-10.21;46.07;98788.78;10452697;28;20049;-48
2021/01/17 13:37:03;;;;;;;16.80;5.20;;;;;;;-10.24;45.53;98790.53;10453356;28;20140;-48
2021/01/17 13:42:05;;;;;;;20.30;5.30;;;;;;;-10.33;45.65;98786.47;10458539;28;20136;-49
2021/01/17 13:47:07;;;;;;;;;;;;;;;-10.44;45.79;98804.41;10461553;28;20063;-47
2021/01/17 13:52:10;;;;;;;12.23;3.83;;;;;;;-10.57;45.81;98809.72;10459922;28;19935;-48
2021/01/17 13:57:12;;;;;;;11.15;3.95;;;;;;;-10.63;46.09;98809.78;10460226;28;20060;-47
2021/01/17 14:02:15;;;;;;;11.63;4.23;;;;;;;-10.68;46.06;98810.72;10459415;28;20083;-46
2021/01/17 14:07:18;;;;;;;5.57;2.40;;;;;;;-10.81;46.94;98819.34;10460358;28;20052;-56
2021/01/17 14:12:20;;;;;;;11.65;3.88;;;;;;;-10.95;47.38;98826.31;10459605;28;20048;-46
2021/01/17 14:17:23;;;;;;;13.23;4.20;;;;;;;-11.05;46.98;98847.56;10458906;28;20064;-48
2021/01/17 14:22:26;;;;;;;11.85;4.13;;;;;;;-11.03;47.17;98849.22;10459454;28;20041;-47
2021/01/17 14:27:27;;;;;;;10.82;3.83;;;;;;;-11.00;47.28;98843.28;10454463;28;20098;-51
2021/01/17 14:32:29;;;;;;;9.63;4.20;;;;;;;-11.07;46.89;98847.59;10458996;28;20131;-45
2021/01/17 14:37:32;;;;;;;10.87;4.23;;;;;;;-11.16;47.96;98853.63;10457942;28;20087;-47
2021/01/17 14:42:34;;;;;;;2.25;1.02;;;;;;;-11.22;47.57;98858.75;10457526;28;20489;-48
2021/01/17 14:47:35;;;;;;;12.17;3.60;;;;;;;-11.22;47.77;98858.75;10458795;28;20103;-48
2021/01/17 14:52:41;;;;;;;11.27;4.57;;;;;;;-11.24;48.02;98852.03;10456082;28;20055;-48
2021/01/17 14:57:50;;;;;;;12.90;3.53;;;;;;;-11.16;47.26;98862.94;10458327;28;20401;-47
2021/01/17 15:02:55;;;;;;;16.63;4.53;;;;;;;-11.10;47.39;98870.47;10458108;28;20385;-47
2021/01/17 15:07:58;;;;;;;16.03;6.33;;;;;;;-11.10;47.24;98867.09;10457866;28;20401;-48
2021/01/17 15:13:00;;;;;;;13.10;3.67;;;;;;;-11.15;47.57;98867.13;10457801;28;20527;-48
2021/01/17 15:18:02;;;;;;;12.60;4.20;;;;;;;-11.21;48.00;98868.03;10457383;28;20049;-48
2021/01/17 15:23:04;;;;;;;12.18;4.03;;;;;;;-11.20;47.88;98872.28;10457093;28;20060;-46
2021/01/17 15:28:06;;;;;;;19.42;5.63;;;;;;;-11.20;48.33;98879.06;10469797;28;20056;-46
2021/01/17 15:33:08;;;;;;;11.93;3.63;;;;;;;-11.20;48.51;98872.28;10465596;28;20049;-47
2021/01/17 15:38:11;;;;;;;9.33;3.20;;;;;;;-11.21;48.74;98875.66;10455185;28;20143;-47
2021/01/17 15:43:13;;;;;;;8.35;3.92;;;;;;;-11.17;48.39;98887.47;10455262;28;20075;-47
2021/01/17 15:48:14;;;;;;;12.67;4.57;;;;;;;-11.13;48.15;98891.66;10455984;28;20473;-47
2021/01/17 15:53:17;;;;;;;14.43;4.93;;;;;;;-11.09;48.06;98899.22;10456368;28;20057;-48
2021/01/17 15:58:19;;;;;;;20.10;5.57;;;;;;;-11.08;48.29;98905.97;10455030;28;20041;-47
2021/01/17 16:03:20;;;;;;;15.73;6.33;;;;;;;-11.16;47.62;98914.53;10457844;28;20056;-46
2021/01/17 16:08:23;;;;;;;20.00;8.50;;;;;;;-11.25;48.01;98909.53;10455961;28;20470;-48
2021/01/17 16:13:25;;;;;;;24.58;8.45;;;;;;;-11.33;47.89;98913.00;10454378;28;20401;-48
2021/01/17 16:18:27;;;;;;;28.00;8.67;;;;;;;-11.42;48.32;98921.53;10454034;28;20612;-47
2021/01/17 16:23:29;;;;;;;11.43;6.50;;;;;;;-11.52;48.70;98925.84;10455504;28;20060;-46
2021/01/17 16:28:31;;;;;;;21.40;6.53;;;;;;;-11.57;48.04;98934.34;10448595;28;20084;-47
2021/01/17 16:33:33;;;;;;;17.60;6.37;;;;;;;-11.61;48.59;98931.84;10419368;28;20461;-48
2021/01/17 16:38:35;;;;;;;12.03;4.37;;;;;;;-11.66;48.81;98928.53;10414038;28;20407;-47
2021/01/17 16:43:37;;;;;;;18.42;6.80;;;;;;;-11.68;48.33;98942.91;10413602;28;20056;-47
2021/01/17 16:48:39;;;;;;;13.80;5.87;;;;;;;-11.70;47.87;98952.19;10413817;28;20467;-47
2021/01/17 16:53:41;;;;;;;20.07;6.80;;;;;;;-11.64;47.66;98956.38;10412977;28;20103;-47
2021/01/17 16:58:43;;;;;;;22.40;8.48;;;;;;;-11.56;47.99;98941.97;10413157;28;20188;-47
2021/01/17 17:03:45;;;;;;;16.90;7.18;;;;;;;-11.61;47.84;98941.97;10453125;28;20092;-47
2021/01/17 17:08:47;;;;;;;13.10;4.93;;;;;;;-11.62;47.95;98949.63;10454905;28;20054;-50
2021/01/17 17:13:50;;;;;;;14.93;6.53;;;;;;;-11.68;47.68;98944.59;10453284;28;20486;-46
2021/01/17 17:18:52;;;;;;;13.40;5.80;;;;;;;-11.76;47.85;98952.25;10461456;28;20033;-48
2021/01/17 17:23:56;;;;;;;13.85;5.32;;;;;;;-11.83;48.14;98956.53;10462211;28;20374;-47
2021/01/17 17:29:01;;;;;;;17.97;6.27;;;;;;;-11.86;47.95;98953.22;10462377;28;20123;-48
2021/01/17 17:34:03;;;;;;;16.40;6.90;;;;;;;-11.89;47.83;98951.53;10462257;28;20140;-47
2021/01/17 17:39:06;;;;;;;16.53;6.30;;;;;;;-11.94;47.67;98960.03;10461999;28;20067;-46
2021/01/17 17:44:09;;;;;;;14.90;6.77;;;;;;;-11.99;47.62;98964.28;10460888;28;20140;-46
2021/01/17 17:49:10;;;;;;;20.90;7.53;;;;;;;-12.01;47.36;98976.94;10461960;28;20098;-47
2021/01/17 17:54:13;;;;;;;19.87;7.23;;;;;;;-11.96;47.21;98979.47;10464025;28;20793;-47
2021/01/17 17:59:15;;;;;;;21.88;5.22;;;;;;;-11.92;47.56;98988.72;10461266;28;20087;-53
2021/01/17 18:04:16;;;;;;;13.87;5.83;;;;;;;-11.89;47.04;98979.41;10460886;28;20455;-48
2021/01/17 18:09:19;;;;;;;14.10;6.17;;;;;;;-11.90;47.22;98974.38;10460256;28;20045;-48
2021/01/17 18:14:21;;;;;;;23.55;10.18;;;;;;;-12.03;46.77;98972.78;10459853;28;20055;-46
2021/01/17 18:19:22;;;;;;;19.77;7.37;;;;;;;-12.13;46.81;98961.81;10456989;28;20040;-47
2021/01/17 18:24:25;;;;;;;20.87;8.27;;;;;;;-12.20;46.75;98978.75;10455743;28;20068;-48
2021/01/17 18:29:28;;;;;;;19.92;7.07;;;;;;;-12.20;47.13;98980.44;10459175;28;20045;-48
2021/01/17 18:34:30;;;;;;;15.40;6.63;;;;;;;-12.12;47.01;98991.41;10462221;28;20041;-46
2021/01/17 18:39:33;;;;;;;15.57;6.60;;;;;;;-12.04;46.45;98986.28;10460400;28;20056;-47
2021/01/17 18:44:35;;;;;;;23.45;9.13;;;;;;;-12.06;46.63;98987.13;10458579;28;20503;-47
2021/01/17 18:49:36;;;;;;;24.20;7.30;;;;;;;-12.10;46.20;98977.00;10458522;28;20045;-47
2021/01/17 18:54:39;;;;;;;14.13;6.17;;;;;;;-12.14;46.50;98976.19;10458096;28;20060;-49
2021/01/17 18:59:42;;;;;;;19.07;7.27;;;;;;;-12.18;46.37;98971.16;10457945;28;20055;-47
2021/01/17 19:04:43;;;;;;;16.40;7.33;;;;;;;-12.25;46.67;98966.97;10459205;28;20057;-48
2021/01/17 19:09:46;;;;;;;25.87;9.77;;;;;;;-12.32;46.89;98976.28;10459396;28;20500;-48
2021/01/17 19:14:48;;;;;;;;;;;;;;;-12.39;47.16;98972.09;10457745;28;20052;-52
2021/01/17 19:19:49;;;;;;;20.13;8.53;;;;;;;-12.48;47.38;98974.69;10456683;28;20023;-52
2021/01/17 19:24:52;;;;;;;22.47;9.33;;;;;;;-12.56;47.39;98973.03;10457748;28;20110;-47
2021/01/17 19:29:54;;;;;;;21.90;7.15;;;;;;;-12.61;47.82;98966.31;10457759;28;20131;-47
2021/01/17 19:34:55;;;;;;;12.10;6.80;;;;;;;-12.64;47.91;98972.22;10458223;28;20147;-47
2021/01/17 19:39:58;;;;;;;14.53;5.30;;;;;;;-12.62;47.79;98970.53;10458020;28;20053;-46
2021/01/17 19:45:00;;;;;;;12.38;5.53;;;;;;;-12.63;47.59;98966.28;10456459;28;20057;-47
2021/01/17 19:50:01;;;;;;;15.90;7.00;;;;;;;-12.64;47.72;98967.16;10456238;28;20466;-48
2021/01/17 19:55:05;;;;;;;14.80;6.37;;;;;;;-12.66;47.78;98970.53;10456159;28;20055;-47
2021/01/17 20:00:08;;;;;;;14.43;6.27;;;;;;;-12.73;47.77;98977.31;10453891;28;20057;-50
2021/01/17 20:05:14;;;;;;;18.47;5.63;;;;;;;-12.74;47.88;98973.09;10456017;28;20044;-47
2021/01/17 20:10:17;;;;;;;13.68;5.63;;;;;;;-12.80;47.92;98975.66;10456273;28;20061;-47
2021/01/17 20:15:19;;;;;;;7.50;4.72;;;;;;;-12.85;48.50;98975.66;10456502;28;20071;-46
2021/01/17 20:20:21;;;;;;;9.83;1.87;;;;;;;-12.87;48.50;98969.75;10456557;28;20045;-46
2021/01/17 20:25:23;;;;;;;15.57;4.20;;;;;;;-12.92;48.78;98983.28;10456487;28;20053;-47
2021/01/17 20:30:25;;;;;;;15.77;5.03;;;;;;;-12.95;48.94;98989.19;10454685;28;20045;-46
2021/01/17 20:35:27;;;;;;;9.87;4.70;;;;;;;-12.92;48.89;98996.75;10454620;28;20080;-48
2021/01/17 20:40:29;;;;;;;5.67;2.40;;;;;;;-12.92;49.16;98983.28;10454208;28;20144;-47
2021/01/17 20:45:31;;;;;;;9.02;3.85;;;;;;;-12.91;48.55;98980.72;10456227;28;20045;-47
2021/01/17 20:50:33;;;;;;;14.80;5.53;;;;;;;-12.93;48.51;98987.47;10459179;28;20041;-48
2021/01/17 20:55:35;;;;;;;8.37;4.90;;;;;;;-12.90;48.59;98991.69;10464101;28;20087;-49
2021/01/17 21:00:37;;;;;;;15.48;4.97;;;;;;;-12.87;48.41;98984.09;10464714;28;20069;-47
2021/01/17 21:05:39;;;;;;;15.87;4.50;;;;;;;-12.82;48.42;98987.47;10462889;28;20079;-48
2021/01/17 21:10:41;;;;;;;6.53;2.97;;;;;;;-12.77;48.46;98990.81;10431227;28;20414;-47
2021/01/17 21:15:43;;;;;;;16.25;5.95;;;;;;;-12.78;48.32;98986.59;10420910;28;20490;-48
2021/01/17 21:20:45;;;;;;;8.00;4.13;;;;;;;-12.79;48.21;98984.91;10440999;28;20041;-47
2021/01/17 21:25:48;;;;;;;18.17;3.58;;;;;;;-12.73;47.72;98979.84;10466751;28;20131;-47
2021/01/17 21:30:50;;;;;;;12.48;5.45;;;;;;;-12.66;47.85;98996.69;10467365;28;20045;-48
2021/01/17 21:35:51;;;;;;;15.50;5.50;;;;;;;-12.59;47.63;98988.25;10464486;28;20044;-47
2021/01/17 21:40:54;;;;;;;17.73;5.53;;;;;;;-12.51;47.27;98985.66;10463022;28;20436;-48
2021/01/17 21:45:56;;;;;;;10.98;4.93;;;;;;;-12.41;47.30;99006.72;10460646;28;20087;-48
2021/01/17 21:50:58;;;;;;;19.90;5.77;;;;;;;-12.31;47.37;99000.78;10461030;28;20056;-49
2021/01/17 21:56:00;;;;;;;18.40;5.13;;;;;;;-12.24;47.00;99014.25;10460694;28;20170;-48
2021/01/17 22:01:02;;;;;;;20.05;6.10;;;;;;;-12.19;47.01;99008.31;10461151;28;20146;-51
2021/01/17 22:06:04;;;;;;;12.90;4.70;;;;;;;-12.22;47.26;99000.75;10461736;28;20052;-48
2021/01/17 22:11:07;;;;;;;16.50;6.00;;;;;;;-12.25;47.05;99008.34;10461417;28;20502;-47
2021/01/17 22:16:09;;;;;;;20.10;4.95;;;;;;;-12.22;47.41;99021.00;10461341;28;20279;-47
2021/01/17 22:21:11;;;;;;;13.90;5.30;;;;;;;-12.14;46.70;99021.78;10459957;28;20496;-47
2021/01/17 22:26:13;;;;;;;12.43;5.73;;;;;;;-12.12;46.45;99019.28;10462997;28;20044;-53
2021/01/17 22:31:15;;;;;;;10.45;3.20;;;;;;;-12.03;46.79;99018.38;10463063;28;20449;-50
2021/01/17 22:36:17;;;;;;;12.60;4.87;;;;;;;-12.07;46.59;99018.41;10459005;28;20063;-47
2021/01/17 22:41:19;;;;;;;16.43;5.37;;;;;;;-12.14;46.79;99024.31;10460655;28;20055;-53
2021/01/17 22:46:21;;;;;;;10.80;4.55;;;;;;;-12.10;46.79;99033.63;10460145;28;20439;-48
2021/01/17 22:51:23;;;;;;;12.80;5.03;;;;;;;-12.01;46.74;99036.94;10460148;28;20049;-48
2021/01/17 22:56:26;;;;;;;11.77;5.20;;;;;;;-11.94;46.56;99041.16;10459696;28;20049;-47
2021/01/17 23:01:32;;;;;;;10.63;5.13;;;;;;;-11.87;46.22;99046.16;10457515;28;20057;-48
2021/01/17 23:06:33;;;;;;;15.77;5.63;;;;;;;-11.77;46.24;99046.06;10457748;28;20118;-47
2021/01/17 23:11:36;;;;;;;11.37;4.37;;;;;;;-11.67;46.52;99052.75;10456520;28;20053;-49
2021/01/17 23:16:37;;;;;;;13.65;4.93;;;;;;;-11.70;46.32;99058.69;10460936;28;20057;-46